createdAt,value
2022-10-17T00:00:47.414Z,1006.97
2022-10-17T00:01:47.423Z,1006.99
2022-10-17T00:02:47.382Z,1006.98
2022-10-17T00:03:47.364Z,1006.96
2022-10-17T00:04:48.185Z,1006.98
2022-10-17T00:05:47.435Z,1006.93
2022-10-17T00:06:47.344Z,1007.02
2022-10-17T00:07:47.343Z,1006.99
2022-10-17T00:08:48.247Z,1007.09
2022-10-17T00:09:47.324Z,1007.05
2022-10-17T00:10:47.348Z,1006.98
2022-10-17T00:11:47.323Z,1007.05
2022-10-17T00:12:47.322Z,1007.07
2022-10-17T00:13:47.430Z,1007.05
2022-10-17T00:14:47.316Z,1007.09
2022-10-17T00:15:47.305Z,1007.09
2022-10-17T00:16:47.284Z,1007.01
2022-10-17T00:17:47.285Z,1007.04
2022-10-17T00:18:47.292Z,1007.04
2022-10-17T00:19:47.263Z,1007.01
2022-10-17T00:20:47.493Z,1007.00
2022-10-17T00:21:47.271Z,1007.07
2022-10-17T00:22:47.243Z,1007.01
2022-10-17T00:23:47.280Z,1007.08
2022-10-17T00:24:47.240Z,1007.05
2022-10-17T00:25:47.475Z,1007.09
2022-10-17T00:26:47.240Z,1007.04
2022-10-17T00:27:47.201Z,1007.03
2022-10-17T00:28:47.247Z,1007.06
2022-10-17T00:29:47.183Z,1007.05
2022-10-17T00:30:47.181Z,1007.04
2022-10-17T00:31:47.226Z,1006.98
2022-10-17T00:32:47.181Z,1007.04
2022-10-17T00:33:47.184Z,1007.07
2022-10-17T00:34:47.173Z,1007.04
2022-10-17T00:35:47.149Z,1007.02
2022-10-17T00:36:47.198Z,1007.05
2022-10-17T00:37:47.140Z,1007.06
2022-10-17T00:38:47.139Z,1007.14
2022-10-17T00:39:47.122Z,1007.08
2022-10-17T00:40:47.139Z,1007.04
2022-10-17T00:41:47.168Z,1007.11
2022-10-17T00:42:47.099Z,1007.03
2022-10-17T00:43:47.088Z,1007.04
2022-10-17T00:44:47.089Z,1007.03
2022-10-17T00:45:47.097Z,1007.04
2022-10-17T00:46:47.098Z,1007.00
2022-10-17T00:47:47.072Z,1007.01
2022-10-17T00:48:47.089Z,1006.98
2022-10-17T00:49:47.059Z,1006.96
2022-10-17T00:50:47.048Z,1006.96
2022-10-17T00:51:47.201Z,1006.98
2022-10-17T00:52:47.037Z,1006.99
2022-10-17T00:53:47.028Z,1006.98
2022-10-17T00:54:47.026Z,1007.00
2022-10-17T00:55:47.027Z,1007.04
2022-10-17T00:56:47.072Z,1007.02
2022-10-17T00:57:47.015Z,1006.99
2022-10-17T00:58:47.015Z,1006.96
2022-10-17T00:59:46.996Z,1007.01
2022-10-17T01:00:46.988Z,1006.97
2022-10-17T01:01:47.064Z,1007.05
2022-10-17T01:02:46.976Z,1006.99
2022-10-17T01:03:46.987Z,1007.02
2022-10-17T01:04:46.953Z,1007.02
2022-10-17T01:05:46.946Z,1007.05
2022-10-17T01:06:46.969Z,1006.98
2022-10-17T01:07:46.928Z,1007.04
2022-10-17T01:08:46.932Z,1007.04
2022-10-17T01:09:46.920Z,1007.09
2022-10-17T01:10:46.915Z,1007.04
2022-10-17T01:11:47.024Z,1007.05
2022-10-17T01:12:46.906Z,1006.98
2022-10-17T01:13:46.894Z,1007.00
2022-10-17T01:14:46.885Z,1007.04
2022-10-17T01:15:46.887Z,1006.97
2022-10-17T01:16:46.886Z,1006.99
2022-10-17T01:17:47.267Z,1006.94
2022-10-17T01:18:47.394Z,1006.94
2022-10-17T01:19:47.417Z,1006.94
2022-10-17T01:20:47.495Z,1006.95
2022-10-17T01:21:47.142Z,1006.94
2022-10-17T01:22:47.094Z,1006.93
2022-10-17T01:23:47.524Z,1006.91
2022-10-17T01:24:46.864Z,1006.92
2022-10-17T01:25:46.913Z,1006.92
2022-10-17T01:26:46.922Z,1006.88
2022-10-17T01:27:46.941Z,1006.93
2022-10-17T01:28:47.047Z,1006.94
2022-10-17T01:29:47.053Z,1006.93
2022-10-17T01:30:47.067Z,1006.94
2022-10-17T01:31:47.105Z,1006.90
2022-10-17T01:32:47.174Z,1006.86
2022-10-17T01:33:46.803Z,1006.86
2022-10-17T01:34:47.023Z,1006.87
2022-10-17T01:35:47.203Z,1006.87
2022-10-17T01:36:47.301Z,1006.86
2022-10-17T01:37:47.351Z,1006.88
2022-10-17T01:38:47.413Z,1006.83
2022-10-17T01:39:47.739Z,1006.84
2022-10-17T01:40:47.322Z,1006.83
2022-10-17T01:41:46.753Z,1006.76
2022-10-17T01:42:46.833Z,1006.77
2022-10-17T01:43:47.378Z,1006.72
2022-10-17T01:44:47.250Z,1006.71
2022-10-17T01:45:46.851Z,1006.75
2022-10-17T01:46:46.996Z,1006.74
2022-10-17T01:47:47.703Z,1006.73
2022-10-17T01:48:47.610Z,1006.75
2022-10-17T01:49:47.510Z,1006.71
2022-10-17T01:50:47.670Z,1006.68
2022-10-17T01:51:47.577Z,1006.71
2022-10-17T01:52:47.480Z,1006.69
2022-10-17T01:53:47.638Z,1006.67
2022-10-17T01:54:46.620Z,1006.65
2022-10-17T01:55:46.666Z,1006.65
2022-10-17T01:56:46.619Z,1006.60
2022-10-17T01:57:46.620Z,1006.61
2022-10-17T01:58:46.658Z,1006.62
2022-10-17T01:59:46.640Z,1006.57
2022-10-17T02:00:46.683Z,1006.57
2022-10-17T02:01:46.743Z,1006.55
2022-10-17T02:02:46.578Z,1006.61
2022-10-17T02:03:46.568Z,1006.55
2022-10-17T02:04:46.678Z,1006.53
2022-10-17T02:05:46.590Z,1006.52
2022-10-17T02:06:46.597Z,1006.54
2022-10-17T02:07:46.538Z,1006.50
2022-10-17T02:08:46.517Z,1006.48
2022-10-17T02:09:46.621Z,1006.47
2022-10-17T02:10:46.726Z,1006.51
2022-10-17T02:11:46.838Z,1006.48
2022-10-17T02:12:46.536Z,1006.47
2022-10-17T02:13:46.506Z,1006.48
2022-10-17T02:14:46.854Z,1006.44
2022-10-17T02:15:46.475Z,1006.42
2022-10-17T02:16:46.856Z,1006.43
2022-10-17T02:17:46.477Z,1006.52
2022-10-17T02:18:46.456Z,1006.53
2022-10-17T02:19:46.445Z,1006.50
2022-10-17T02:20:46.449Z,1006.50
2022-10-17T02:21:46.436Z,1006.51
2022-10-17T02:22:46.444Z,1006.55
2022-10-17T02:23:46.424Z,1006.55
2022-10-17T02:24:46.415Z,1006.53
2022-10-17T02:25:46.924Z,1006.58
2022-10-17T02:26:46.831Z,1006.53
2022-10-17T02:27:46.422Z,1006.56
2022-10-17T02:28:46.414Z,1006.57
2022-10-17T02:29:46.375Z,1006.58
2022-10-17T02:30:46.366Z,1006.50
2022-10-17T02:31:46.378Z,1006.51
2022-10-17T02:32:49.388Z,1006.53
2022-10-17T02:33:46.355Z,1006.57
2022-10-17T02:34:46.342Z,1006.51
2022-10-17T02:35:47.095Z,1006.44
2022-10-17T02:36:46.502Z,1006.40
2022-10-17T02:37:46.494Z,1006.47
2022-10-17T02:38:46.333Z,1006.43
2022-10-17T02:39:46.324Z,1006.45
2022-10-17T02:40:46.335Z,1006.38
2022-10-17T02:41:46.429Z,1006.41
2022-10-17T02:42:46.434Z,1006.44
2022-10-17T02:43:46.302Z,1006.45
2022-10-17T02:44:46.444Z,1006.44
2022-10-17T02:45:46.284Z,1006.36
2022-10-17T02:46:46.362Z,1006.43
2022-10-17T02:47:46.264Z,1006.44
2022-10-17T02:48:46.275Z,1006.43
2022-10-17T02:49:46.310Z,1006.40
2022-10-17T02:50:46.250Z,1006.40
2022-10-17T02:51:46.405Z,1006.39
2022-10-17T02:52:46.704Z,1006.43
2022-10-17T02:53:46.713Z,1006.37
2022-10-17T02:54:46.722Z,1006.33
2022-10-17T02:55:46.206Z,1006.40
2022-10-17T02:56:46.761Z,1006.40
2022-10-17T02:57:46.741Z,1006.35
2022-10-17T02:58:46.191Z,1006.37
2022-10-17T02:59:46.243Z,1006.37
2022-10-17T03:00:46.183Z,1006.37
2022-10-17T03:01:46.161Z,1006.35
2022-10-17T03:02:46.162Z,1006.36
2022-10-17T03:03:46.153Z,1006.35
2022-10-17T03:04:46.141Z,1006.30
2022-10-17T03:05:46.146Z,1006.34
2022-10-17T03:06:46.123Z,1006.31
2022-10-17T03:07:46.167Z,1006.33
2022-10-17T03:08:46.208Z,1006.37
2022-10-17T03:09:46.152Z,1006.44
2022-10-17T03:10:46.101Z,1006.42
2022-10-17T03:11:46.130Z,1006.49
2022-10-17T03:12:46.749Z,1006.46
2022-10-17T03:13:46.859Z,1006.45
2022-10-17T03:14:46.073Z,1006.50
2022-10-17T03:15:46.062Z,1006.52
2022-10-17T03:16:46.059Z,1006.50
2022-10-17T03:18:49.322Z,1006.54
2022-10-17T03:19:46.031Z,1006.55
2022-10-17T03:20:46.029Z,1006.53
2022-10-17T03:21:46.018Z,1006.52
2022-10-17T03:22:46.081Z,1006.44
2022-10-17T03:23:46.019Z,1006.42
2022-10-17T03:24:46.000Z,1006.53
2022-10-17T03:25:45.996Z,1006.43
2022-10-17T03:27:46.049Z,1006.49
2022-10-17T03:28:47.612Z,1006.45
2022-10-17T03:29:45.967Z,1006.43
2022-10-17T03:30:45.957Z,1006.47
2022-10-17T03:31:45.967Z,1006.47
2022-10-17T03:32:46.057Z,1006.52
2022-10-17T03:33:45.949Z,1006.37
2022-10-17T03:34:45.947Z,1006.41
2022-10-17T03:35:45.970Z,1006.44
2022-10-17T03:36:45.930Z,1006.43
2022-10-17T03:37:45.908Z,1006.39
2022-10-17T03:38:45.996Z,1006.42
2022-10-17T03:39:45.913Z,1006.44
2022-10-17T03:40:45.895Z,1006.45
2022-10-17T03:41:45.876Z,1006.46
2022-10-17T03:42:45.887Z,1006.45
2022-10-17T03:43:45.885Z,1006.47
2022-10-17T03:44:45.869Z,1006.47
2022-10-17T03:45:45.854Z,1006.48
2022-10-17T03:46:45.856Z,1006.48
2022-10-17T03:47:45.838Z,1006.48
2022-10-17T03:48:45.846Z,1006.43
2022-10-17T03:49:45.832Z,1006.47
2022-10-17T03:50:45.826Z,1006.48
2022-10-17T03:51:45.826Z,1006.52
2022-10-17T03:52:45.826Z,1006.53
2022-10-17T03:53:45.825Z,1006.49
2022-10-17T03:54:45.804Z,1006.51
2022-10-17T03:55:45.795Z,1006.51
2022-10-17T03:56:45.820Z,1006.49
2022-10-17T03:57:45.880Z,1006.50
2022-10-17T03:58:45.806Z,1006.53
2022-10-17T03:59:45.755Z,1006.50
2022-10-17T04:00:45.764Z,1006.51
2022-10-17T04:01:45.795Z,1006.47
2022-10-17T04:02:45.744Z,1006.52
2022-10-17T04:03:45.775Z,1006.47
2022-10-17T04:04:45.746Z,1006.45
2022-10-17T04:05:45.724Z,1006.47
2022-10-17T04:06:45.714Z,1006.41
2022-10-17T04:07:45.704Z,1006.44
2022-10-17T04:08:45.714Z,1006.49
2022-10-17T04:09:45.705Z,1006.54
2022-10-17T04:10:45.693Z,1006.48
2022-10-17T04:11:45.683Z,1006.49
2022-10-17T04:12:45.673Z,1006.45
2022-10-17T04:13:46.334Z,1006.47
2022-10-17T04:14:45.684Z,1006.51
2022-10-17T04:15:45.664Z,1006.50
2022-10-17T04:16:45.656Z,1006.49
2022-10-17T04:17:45.821Z,1006.45
2022-10-17T04:18:45.654Z,1006.55
2022-10-17T04:19:45.694Z,1006.51
2022-10-17T04:20:45.614Z,1006.57
2022-10-17T04:21:45.614Z,1006.62
2022-10-17T04:22:45.615Z,1006.56
2022-10-17T04:23:45.643Z,1006.65
2022-10-17T04:24:46.452Z,1006.72
2022-10-17T04:25:45.609Z,1006.69
2022-10-17T04:26:45.585Z,1006.60
2022-10-17T04:27:45.574Z,1006.62
2022-10-17T04:28:45.573Z,1006.67
2022-10-17T04:29:45.741Z,1006.65
2022-10-17T04:30:45.810Z,1006.74
2022-10-17T04:31:45.662Z,1006.69
2022-10-17T04:32:45.541Z,1006.68
2022-10-17T04:33:45.541Z,1006.68
2022-10-17T04:34:45.548Z,1006.64
2022-10-17T04:35:45.532Z,1006.67
2022-10-17T04:36:45.512Z,1006.66
2022-10-17T04:37:45.501Z,1006.64
2022-10-17T04:38:45.592Z,1006.64
2022-10-17T04:39:45.517Z,1006.61
2022-10-17T04:40:45.500Z,1006.64
2022-10-17T04:41:45.474Z,1006.63
2022-10-17T04:42:45.499Z,1006.68
2022-10-17T04:43:48.630Z,1006.64
2022-10-17T04:44:45.469Z,1006.68
2022-10-17T04:45:45.478Z,1006.65
2022-10-17T04:46:45.469Z,1006.69
2022-10-17T04:47:45.472Z,1006.69
2022-10-17T04:48:45.490Z,1006.62
2022-10-17T04:49:45.509Z,1006.68
2022-10-17T04:50:45.452Z,1006.66
2022-10-17T04:51:45.409Z,1006.64
2022-10-17T04:52:45.417Z,1006.71
2022-10-17T04:53:45.530Z,1006.66
2022-10-17T04:54:45.392Z,1006.64
2022-10-17T04:55:45.397Z,1006.61
2022-10-17T04:56:45.389Z,1006.68
2022-10-17T04:57:45.376Z,1006.62
2022-10-17T04:58:45.360Z,1006.63
2022-10-17T04:59:45.368Z,1006.65
2022-10-17T05:00:45.586Z,1006.65
2022-10-17T05:01:45.567Z,1006.58
2022-10-17T05:02:45.580Z,1006.64
2022-10-17T05:03:45.340Z,1006.63
2022-10-17T05:04:45.337Z,1006.60
2022-10-17T05:05:45.327Z,1006.60
2022-10-17T05:06:45.307Z,1006.63
2022-10-17T05:07:45.297Z,1006.63
2022-10-17T05:08:45.388Z,1006.61
2022-10-17T05:09:45.628Z,1006.59
2022-10-17T05:10:45.279Z,1006.53
2022-10-17T05:11:45.429Z,1006.50
2022-10-17T05:12:45.278Z,1006.51
2022-10-17T05:13:45.268Z,1006.47
2022-10-17T05:14:45.289Z,1006.47
2022-10-17T05:15:45.246Z,1006.49
2022-10-17T05:16:45.877Z,1006.46
2022-10-17T05:17:45.888Z,1006.45
2022-10-17T05:18:48.375Z,1006.49
2022-10-17T05:19:45.257Z,1006.48
2022-10-17T05:20:45.225Z,1006.44
2022-10-17T05:21:45.216Z,1006.40
2022-10-17T05:22:45.216Z,1006.44
2022-10-17T05:23:46.756Z,1006.42
2022-10-17T05:24:45.229Z,1006.44
2022-10-17T05:25:45.266Z,1006.45
2022-10-17T05:26:45.183Z,1006.48
2022-10-17T05:27:45.806Z,1006.44
2022-10-17T05:28:46.004Z,1006.44
2022-10-17T05:29:45.965Z,1006.47
2022-10-17T05:30:45.165Z,1006.52
2022-10-17T05:31:45.145Z,1006.57
2022-10-17T05:32:45.989Z,1006.59
2022-10-17T05:33:45.414Z,1006.57
2022-10-17T05:34:46.006Z,1006.60
2022-10-17T05:35:46.015Z,1006.58
2022-10-17T05:36:45.500Z,1006.54
2022-10-17T05:37:46.026Z,1006.57
2022-10-17T05:38:46.008Z,1006.54
2022-10-17T05:39:50.561Z,1006.51
2022-10-17T05:40:46.047Z,1006.59
2022-10-17T05:41:45.117Z,1006.57
2022-10-17T05:42:45.138Z,1006.65
2022-10-17T05:43:45.262Z,1006.67
2022-10-17T05:44:45.078Z,1006.61
2022-10-17T05:45:45.064Z,1006.66
2022-10-17T05:46:45.112Z,1006.67
2022-10-17T05:47:45.287Z,1006.68
2022-10-17T05:48:45.294Z,1006.64
2022-10-17T05:49:50.092Z,1006.63
2022-10-17T05:50:45.304Z,1006.60
2022-10-17T05:51:45.168Z,1006.61
2022-10-17T05:52:47.154Z,1006.61
2022-10-17T05:53:45.538Z,1006.66
2022-10-17T05:54:45.533Z,1006.64
2022-10-17T05:55:45.542Z,1006.63
2022-10-17T05:56:45.334Z,1006.66
2022-10-17T05:57:45.076Z,1006.66
2022-10-17T05:58:50.368Z,1006.68
2022-10-17T05:59:44.991Z,1006.71
2022-10-17T06:01:45.071Z,1006.80
2022-10-17T06:02:44.982Z,1006.80
2022-10-17T06:03:44.993Z,1006.84
2022-10-17T06:04:44.932Z,1006.83
2022-10-17T06:05:44.950Z,1006.80
2022-10-17T06:06:44.902Z,1006.83
2022-10-17T06:07:44.901Z,1006.83
2022-10-17T06:08:44.952Z,1006.86
2022-10-17T06:10:44.892Z,1006.76
2022-10-17T06:11:44.891Z,1006.78
2022-10-17T06:12:45.068Z,1006.82
2022-10-17T06:13:44.852Z,1006.86
2022-10-17T06:14:44.840Z,1006.86
2022-10-17T06:15:44.886Z,1006.87
2022-10-17T06:16:44.841Z,1006.91
2022-10-17T06:17:44.841Z,1006.92
2022-10-17T06:18:44.986Z,1006.99
2022-10-17T06:19:45.166Z,1006.97
2022-10-17T06:20:46.102Z,1007.04
2022-10-17T06:21:45.119Z,1007.00
2022-10-17T06:22:44.789Z,1007.01
2022-10-17T06:23:45.122Z,1007.10
2022-10-17T06:24:44.772Z,1007.04
2022-10-17T06:25:44.945Z,1007.06
2022-10-17T06:26:45.030Z,1007.09
2022-10-17T06:27:44.784Z,1007.11
2022-10-17T06:28:44.785Z,1007.18
2022-10-17T06:29:44.741Z,1007.23
2022-10-17T06:30:44.774Z,1007.19
2022-10-17T06:31:44.740Z,1007.14
2022-10-17T06:32:44.721Z,1007.13
2022-10-17T06:33:45.190Z,1007.20
2022-10-17T06:34:45.020Z,1007.16
2022-10-17T06:35:44.732Z,1007.19
2022-10-17T06:36:44.756Z,1007.22
2022-10-17T06:37:44.838Z,1007.21
2022-10-17T06:38:44.740Z,1007.21
2022-10-17T06:39:44.669Z,1007.14
2022-10-17T06:40:44.689Z,1007.16
2022-10-17T06:41:44.741Z,1007.23
2022-10-17T06:42:44.691Z,1007.29
2022-10-17T06:43:44.639Z,1007.31
2022-10-17T06:44:44.638Z,1007.38
2022-10-17T06:45:44.665Z,1007.41
2022-10-17T06:46:45.099Z,1007.37
2022-10-17T06:47:44.638Z,1007.36
2022-10-17T06:48:44.618Z,1007.42
2022-10-17T06:49:45.128Z,1007.48
2022-10-17T06:50:44.765Z,1007.49
2022-10-17T06:51:44.898Z,1007.46
2022-10-17T06:52:44.631Z,1007.52
2022-10-17T06:53:44.671Z,1007.51
2022-10-17T06:54:44.597Z,1007.53
2022-10-17T06:55:44.566Z,1007.46
2022-10-17T06:56:44.563Z,1007.47
2022-10-17T06:57:44.553Z,1007.51
2022-10-17T06:58:44.757Z,1007.49
2022-10-17T06:59:44.538Z,1007.48
2022-10-17T07:00:44.649Z,1007.52
2022-10-17T07:01:47.019Z,1007.51
2022-10-17T07:02:44.522Z,1007.51
2022-10-17T07:03:44.536Z,1007.50
2022-10-17T07:04:44.605Z,1007.52
2022-10-17T07:05:45.046Z,1007.58
2022-10-17T07:06:44.629Z,1007.59
2022-10-17T07:07:45.584Z,1007.61
2022-10-17T07:08:44.499Z,1007.61
2022-10-17T07:09:44.476Z,1007.63
2022-10-17T07:10:44.505Z,1007.65
2022-10-17T07:11:44.469Z,1007.68
2022-10-17T07:12:44.446Z,1007.70
2022-10-17T07:13:44.446Z,1007.61
2022-10-17T07:14:44.452Z,1007.65
2022-10-17T07:15:44.536Z,1007.61
2022-10-17T07:16:44.888Z,1007.67
2022-10-17T07:17:44.416Z,1007.61
2022-10-17T07:18:44.584Z,1007.62
2022-10-17T07:19:44.404Z,1007.68
2022-10-17T07:20:45.426Z,1007.64
2022-10-17T07:21:44.387Z,1007.63
2022-10-17T07:22:44.388Z,1007.70
2022-10-17T07:23:44.644Z,1007.67
2022-10-17T07:24:44.422Z,1007.69
2022-10-17T07:25:44.375Z,1007.64
2022-10-17T07:26:44.537Z,1007.65
2022-10-17T07:27:45.273Z,1007.65
2022-10-17T07:28:44.467Z,1007.69
2022-10-17T07:29:44.338Z,1007.69
2022-10-17T07:30:44.364Z,1007.72
2022-10-17T07:31:44.326Z,1007.76
2022-10-17T07:32:44.374Z,1007.70
2022-10-17T07:33:44.404Z,1007.75
2022-10-17T07:34:44.396Z,1007.65
2022-10-17T07:35:44.413Z,1007.67
2022-10-17T07:36:44.331Z,1007.67
2022-10-17T07:37:44.287Z,1007.69
2022-10-17T07:38:44.317Z,1007.72
2022-10-17T07:39:44.338Z,1007.75
2022-10-17T07:40:44.314Z,1007.73
2022-10-17T07:41:44.343Z,1007.72
2022-10-17T07:42:44.351Z,1007.69
2022-10-17T07:43:44.279Z,1007.73
2022-10-17T07:44:44.255Z,1007.67
2022-10-17T07:45:44.304Z,1007.66
2022-10-17T07:46:44.262Z,1007.66
2022-10-17T07:47:44.268Z,1007.69
2022-10-17T07:48:44.282Z,1007.76
2022-10-17T07:49:44.494Z,1007.67
2022-10-17T07:50:44.303Z,1007.73
2022-10-17T07:51:44.338Z,1007.77
2022-10-17T07:52:44.321Z,1007.72
2022-10-17T07:53:46.488Z,1007.72
2022-10-17T07:54:44.322Z,1007.65
2022-10-17T07:55:44.332Z,1007.65
2022-10-17T07:56:44.241Z,1007.66
2022-10-17T07:57:44.243Z,1007.63
2022-10-17T07:58:44.281Z,1007.64
2022-10-17T07:59:44.254Z,1007.67
2022-10-17T08:00:44.467Z,1007.72
2022-10-17T08:01:44.274Z,1007.69
2022-10-17T08:02:44.285Z,1007.65
2022-10-17T08:03:44.284Z,1007.65
2022-10-17T08:04:44.292Z,1007.63
2022-10-17T08:05:44.304Z,1007.56
2022-10-17T08:06:44.328Z,1007.55
2022-10-17T08:07:44.135Z,1007.61
2022-10-17T08:08:44.327Z,1007.52
2022-10-17T08:09:44.128Z,1007.53
2022-10-17T08:10:44.361Z,1007.50
2022-10-17T08:11:44.186Z,1007.51
2022-10-17T08:12:44.141Z,1007.47
2022-10-17T08:13:44.252Z,1007.44
2022-10-17T08:14:44.020Z,1007.46
2022-10-17T08:15:44.202Z,1007.41
2022-10-17T08:16:44.171Z,1007.35
2022-10-17T08:17:44.392Z,1007.40
2022-10-17T08:18:44.005Z,1007.37
2022-10-17T08:19:44.519Z,1007.35
2022-10-17T08:20:44.292Z,1007.36
2022-10-17T08:21:44.012Z,1007.31
2022-10-17T08:22:44.530Z,1007.34
2022-10-17T08:23:44.031Z,1007.40
2022-10-17T08:24:44.538Z,1007.40
2022-10-17T08:25:44.231Z,1007.36
2022-10-17T08:26:46.163Z,1007.35
2022-10-17T08:27:44.762Z,1007.34
2022-10-17T08:28:44.465Z,1007.32
2022-10-17T08:29:43.955Z,1007.34
2022-10-17T08:30:44.081Z,1007.33
2022-10-17T08:31:47.726Z,1007.31
2022-10-17T08:32:43.978Z,1007.32
2022-10-17T08:33:43.992Z,1007.32
2022-10-17T08:34:43.889Z,1007.36
2022-10-17T08:35:43.962Z,1007.33
2022-10-17T08:36:44.123Z,1007.38
2022-10-17T08:37:44.122Z,1007.32
2022-10-17T08:38:44.536Z,1007.33
2022-10-17T08:39:44.342Z,1007.39
2022-10-17T08:40:43.931Z,1007.45
2022-10-17T08:41:44.360Z,1007.41
2022-10-17T08:42:44.360Z,1007.46
2022-10-17T08:43:43.949Z,1007.38
2022-10-17T08:44:44.160Z,1007.41
2022-10-17T08:45:43.971Z,1007.41
2022-10-17T08:46:44.600Z,1007.44
2022-10-17T08:47:43.879Z,1007.45
2022-10-17T08:48:46.412Z,1007.46
2022-10-17T08:49:44.019Z,1007.46
2022-10-17T08:50:44.000Z,1007.52
2022-10-17T08:51:44.009Z,1007.53
2022-10-17T08:52:44.017Z,1007.55
2022-10-17T08:53:44.031Z,1007.61
2022-10-17T08:54:44.050Z,1007.64
2022-10-17T08:55:45.584Z,1007.69
2022-10-17T08:56:48.548Z,1007.71
2022-10-17T08:57:44.261Z,1007.71
2022-10-17T08:58:44.505Z,1007.68
2022-10-17T08:59:43.764Z,1007.67
2022-10-17T09:00:43.759Z,1007.65
2022-10-17T09:01:44.300Z,1007.64
2022-10-17T09:02:43.777Z,1007.59
2022-10-17T09:03:43.713Z,1007.67
2022-10-17T09:04:43.899Z,1007.60
2022-10-17T09:05:43.730Z,1007.66
2022-10-17T09:06:43.702Z,1007.59
2022-10-17T09:07:43.709Z,1007.62
2022-10-17T09:08:43.709Z,1007.62
2022-10-17T09:09:43.930Z,1007.62
2022-10-17T09:10:43.779Z,1007.65
2022-10-17T09:11:43.949Z,1007.59
2022-10-17T09:12:43.758Z,1007.56
2022-10-17T09:13:43.973Z,1007.55
2022-10-17T09:14:43.759Z,1007.52
2022-10-17T09:15:43.979Z,1007.46
2022-10-17T09:16:43.758Z,1007.44
2022-10-17T09:17:43.988Z,1007.48
2022-10-17T09:18:44.008Z,1007.51
2022-10-17T09:19:44.008Z,1007.51
2022-10-17T09:20:43.802Z,1007.52
2022-10-17T09:21:44.027Z,1007.48
2022-10-17T09:22:43.651Z,1007.58
2022-10-17T09:23:43.870Z,1007.48
2022-10-17T09:24:43.629Z,1007.46
2022-10-17T09:25:43.642Z,1007.48
2022-10-17T09:26:43.658Z,1007.44
2022-10-17T09:27:43.668Z,1007.51
2022-10-17T09:28:43.717Z,1007.52
2022-10-17T09:29:44.035Z,1007.46
2022-10-17T09:30:45.519Z,1007.49
2022-10-17T09:31:43.938Z,1007.61
2022-10-17T09:32:43.686Z,1007.62
2022-10-17T09:33:59.200Z,1007.64
2022-10-17T09:34:43.908Z,1007.73
2022-10-17T09:35:44.139Z,1007.75
2022-10-17T09:36:43.510Z,1007.80
2022-10-17T09:37:43.518Z,1007.82
2022-10-17T09:38:43.517Z,1007.82
2022-10-17T09:39:43.733Z,1007.87
2022-10-17T09:40:43.769Z,1007.81
2022-10-17T09:41:45.999Z,1007.83
2022-10-17T09:42:43.790Z,1007.87
2022-10-17T09:43:43.458Z,1007.83
2022-10-17T09:44:43.566Z,1007.78
2022-10-17T09:45:43.662Z,1007.80
2022-10-17T09:46:43.447Z,1007.83
2022-10-17T09:47:43.786Z,1007.87
2022-10-17T09:48:43.841Z,1007.79
2022-10-17T09:49:44.007Z,1007.71
2022-10-17T09:50:44.337Z,1007.83
2022-10-17T09:51:43.820Z,1007.81
2022-10-17T09:52:43.617Z,1007.84
2022-10-17T09:53:43.446Z,1007.77
2022-10-17T09:54:43.619Z,1007.88
2022-10-17T09:55:44.368Z,1007.91
2022-10-17T09:56:43.865Z,1007.86
2022-10-17T09:57:43.629Z,1007.89
2022-10-17T09:58:43.367Z,1007.92
2022-10-17T09:59:43.457Z,1007.92
2022-10-17T10:00:43.879Z,1007.90
2022-10-17T10:01:43.498Z,1007.86
2022-10-17T10:02:43.378Z,1007.93
2022-10-17T10:03:43.467Z,1007.91
2022-10-17T10:05:03.302Z,1007.98
2022-10-17T10:05:43.508Z,1008.01
2022-10-17T10:06:43.626Z,1007.86
2022-10-17T10:07:43.316Z,1007.97
2022-10-17T10:08:43.357Z,1008.05
2022-10-17T10:09:43.567Z,1008.05
2022-10-17T10:10:43.763Z,1008.03
2022-10-17T10:11:43.247Z,1008.03
2022-10-17T10:12:43.247Z,1008.11
2022-10-17T10:13:43.974Z,1008.08
2022-10-17T10:14:47.155Z,1008.11
2022-10-17T10:15:43.978Z,1008.08
2022-10-17T10:16:43.791Z,1008.05
2022-10-17T10:17:44.007Z,1008.04
2022-10-17T10:18:44.582Z,1008.06
2022-10-17T10:19:43.206Z,1008.07
2022-10-17T10:20:43.217Z,1007.96
2022-10-17T10:21:45.192Z,1007.99
2022-10-17T10:22:43.216Z,1008.08
2022-10-17T10:23:43.217Z,1008.15
2022-10-17T10:24:43.436Z,1008.12
2022-10-17T10:25:43.139Z,1008.19
2022-10-17T10:26:43.149Z,1008.10
2022-10-17T10:27:43.179Z,1008.10
2022-10-17T10:28:43.310Z,1008.10
2022-10-17T10:29:43.149Z,1008.18
2022-10-17T10:30:43.129Z,1008.18
2022-10-17T10:31:43.275Z,1008.08
2022-10-17T10:32:43.697Z,1008.09
2022-10-17T10:33:49.367Z,1008.12
2022-10-17T10:34:43.125Z,1008.06
2022-10-17T10:35:43.107Z,1008.13
2022-10-17T10:36:43.119Z,1008.14
2022-10-17T10:37:43.137Z,1008.13
2022-10-17T10:38:43.140Z,1008.19
2022-10-17T10:39:43.140Z,1008.20
2022-10-17T10:40:43.251Z,1008.24
2022-10-17T10:41:43.145Z,1008.23
2022-10-17T10:42:43.264Z,1008.26
2022-10-17T10:43:43.167Z,1008.31
2022-10-17T10:44:43.069Z,1008.32
2022-10-17T10:45:48.124Z,1008.46
2022-10-17T10:46:43.177Z,1008.30
2022-10-17T10:47:43.287Z,1008.36
2022-10-17T10:48:43.300Z,1008.35
2022-10-17T10:49:43.298Z,1008.36
2022-10-17T10:50:45.366Z,1008.42
2022-10-17T10:51:43.006Z,1008.45
2022-10-17T10:52:43.016Z,1008.53
2022-10-17T10:53:43.125Z,1008.63
2022-10-17T10:54:42.949Z,1008.60
2022-10-17T10:55:42.957Z,1008.63
2022-10-17T10:56:42.948Z,1008.58
2022-10-17T10:57:42.946Z,1008.74
2022-10-17T10:58:43.053Z,1008.72
2022-10-17T10:59:42.965Z,1008.69
2022-10-17T11:00:43.335Z,1008.74
2022-10-17T11:01:42.905Z,1008.67
2022-10-17T11:02:42.899Z,1008.73
2022-10-17T11:03:43.299Z,1008.73
2022-10-17T11:04:43.516Z,1008.74
2022-10-17T11:05:42.893Z,1008.75
2022-10-17T11:06:43.014Z,1008.76
2022-10-17T11:07:43.217Z,1008.74
2022-10-17T11:08:43.147Z,1008.77
2022-10-17T11:09:43.235Z,1008.72
2022-10-17T11:10:42.838Z,1008.82
2022-10-17T11:11:42.849Z,1008.78
2022-10-17T11:13:42.870Z,1008.86
2022-10-17T11:14:42.865Z,1008.90
2022-10-17T11:15:42.875Z,1008.90
2022-10-17T11:16:42.995Z,1008.96
2022-10-17T11:17:42.885Z,1008.99
2022-10-17T11:18:43.151Z,1009.02
2022-10-17T11:19:42.795Z,1008.94
2022-10-17T11:20:42.878Z,1009.03
2022-10-17T11:21:43.020Z,1009.02
2022-10-17T11:22:43.234Z,1009.06
2022-10-17T11:23:43.146Z,1009.06
2022-10-17T11:24:43.359Z,1009.06
2022-10-17T11:25:43.368Z,1009.08
2022-10-17T11:26:42.845Z,1009.07
2022-10-17T11:27:42.964Z,1009.11
2022-10-17T11:28:43.514Z,1009.15
2022-10-17T11:29:43.546Z,1009.19
2022-10-17T11:31:42.976Z,1009.17
2022-10-17T11:32:42.797Z,1009.19
2022-10-17T11:33:43.318Z,1009.21
2022-10-17T11:34:43.209Z,1009.24
2022-10-17T11:35:43.334Z,1009.21
2022-10-17T11:36:42.915Z,1009.17
2022-10-17T11:37:45.059Z,1009.22
2022-10-17T11:38:42.725Z,1009.28
2022-10-17T11:39:43.199Z,1009.26
2022-10-17T11:40:42.746Z,1009.30
2022-10-17T11:41:42.636Z,1009.34
2022-10-17T11:42:42.761Z,1009.34
2022-10-17T11:43:43.483Z,1009.31
2022-10-17T11:44:42.688Z,1009.33
2022-10-17T11:45:42.978Z,1009.33
2022-10-17T11:46:43.186Z,1009.38
2022-10-17T11:47:42.614Z,1009.43
2022-10-17T11:48:42.656Z,1009.37
2022-10-17T11:49:43.306Z,1009.42
2022-10-17T11:52:56.128Z,1009.47
2022-10-17T11:53:42.696Z,1009.46
2022-10-17T11:54:42.639Z,1009.40
2022-10-17T11:55:42.644Z,1009.39
2022-10-17T11:56:42.920Z,1009.39
2022-10-17T11:57:42.675Z,1009.39
2022-10-17T11:58:42.656Z,1009.47
2022-10-17T11:59:42.577Z,1009.42
2022-10-17T12:00:45.085Z,1009.39
2022-10-17T12:01:42.776Z,1009.42
2022-10-17T12:02:42.805Z,1009.40
2022-10-17T12:03:42.796Z,1009.45
2022-10-17T12:04:46.269Z,1009.52
2022-10-17T12:05:42.815Z,1009.42
2022-10-17T12:06:42.515Z,1009.48
2022-10-17T12:08:42.560Z,1009.51
2022-10-17T12:09:42.447Z,1009.50
2022-10-17T12:10:42.447Z,1009.47
2022-10-17T12:11:42.445Z,1009.53
2022-10-17T12:12:42.456Z,1009.59
2022-10-17T12:13:42.465Z,1009.64
2022-10-17T12:14:42.483Z,1009.58